Elkhorn City, KY (41522)

11:45 AM EDT on July 30, 2016 (GMT -0400)
Head of Greasy Creek | | Change Station

Elev 1322 ft 37.35 °N, 82.49 °W | Updated 4 seconds ago

Overcast
Overcast
75.7 °F
Feels Like 75 °F
N
0.0
Wind Variable Wind from SE
Gusts 0.0 mph

Today
High -- | Low -- °F
--% Chance of Precip.
Yesterday
High -- | Low -- °F
Precip. -- in
Pressure 30.13 in
Visibility -9999.0 miles
Clouds Scattered Clouds 1000 ft
Mostly Cloudy 2200 ft
Overcast 11000 ft
Heat Index 75 °F
Dew Point 74 °F
Humidity 93%
Rainfall 0.02 in
Snow Depth Not available.
6:32 AM 8:38 PM
Waning Crescent, 12% visible
METAR KLNP 301535Z AUTO 24009KT SCT010 BKN022 OVC110 23/20 A3013 RMK AO2 PWINO
Pressure 30.13 in
Visibility -9999.0 miles
Clouds Scattered Clouds 1000 ft
Mostly Cloudy 2200 ft
Overcast 11000 ft
Heat Index 75 °F
Dew Point 74 °F
Humidity 93%
Rainfall 0.02 in
Snow Depth Not available.
6:32 AM 8:38 PM
Waning Crescent, 12% visible
METAR KLNP 301535Z AUTO 24009KT SCT010 BKN022 OVC110 23/20 A3013 RMK AO2 PWINO

10-Day Weather Forecast

Almanac

Astronomy

Jul. 30, 2016 Rise Set
Actual Time
Civil Twilight
Nautical Twilight
Astronomical Twilight
Moon
Length of Visible Light
Length of Day
Tomorrow will be .
, % of the Moon is Illuminated

Today's Extremes

State Highs State Lows

Community

WunderPhotos

Upload Photos

1,928,588 photos uploaded!

WunderBlog® & News

Nearby

Air Quality

  Air Quality AQ Index Pollutant
Not available.

Snow Depth

Station Depth Elevation

Earthquake Activity

City Distance Mag. Time & Date
Minimum magnitude displayed is 2.5.

Coastal Water Temperatures

Place Temperature

Stations

Nearby Weather Stations

Station Location Temp. Windchill Dew Point Humidity Wind Precip. Elev Updated Type
                   

Watches & Warnings

There are currently no watches in effect.